sensor_id;sensor_type;location;lat;lon;timestamp;temperature;humidity
13174;DHT22;6652;48.802;9.190;2023-07-31T00:01:14;16.80;99.90
13174;DHT22;6652;48.802;9.190;2023-07-31T00:03:43;16.80;99.90
13174;DHT22;6652;48.802;9.190;2023-07-31T00:06:10;16.80;99.90
13174;DHT22;6652;48.802;9.190;2023-07-31T00:08:38;16.70;99.90
13174;DHT22;6652;48.802;9.190;2023-07-31T00:11:06;16.70;99.90
13174;DHT22;6652;48.802;9.190;2023-07-31T00:13:33;16.70;99.90
13174;DHT22;6652;48.802;9.190;2023-07-31T00:16:00;16.70;99.90
13174;DHT22;6652;48.802;9.190;2023-07-31T00:18:27;16.70;99.90
13174;DHT22;6652;48.802;9.190;2023-07-31T00:20:55;16.60;99.90
13174;DHT22;6652;48.802;9.190;2023-07-31T00:23:22;16.70;99.90
13174;DHT22;6652;48.802;9.190;2023-07-31T00:25:49;16.60;99.90
13174;DHT22;6652;48.802;9.190;2023-07-31T00:28:16;16.70;99.90
13174;DHT22;6652;48.802;9.190;2023-07-31T00:30:42;16.50;99.90
13174;DHT22;6652;48.802;9.190;2023-07-31T00:33:09;16.50;99.90
13174;DHT22;6652;48.802;9.190;2023-07-31T00:35:36;16.50;99.90
13174;DHT22;6652;48.802;9.190;2023-07-31T00:38:04;16.50;99.90
13174;DHT22;6652;48.802;9.190;2023-07-31T00:40:35;16.50;99.90
13174;DHT22;6652;48.802;9.190;2023-07-31T00:43:02;16.50;99.90
13174;DHT22;6652;48.802;9.190;2023-07-31T00:45:29;16.40;99.90
13174;DHT22;6652;48.802;9.190;2023-07-31T00:47:57;16.40;99.90
13174;DHT22;6652;48.802;9.190;2023-07-31T00:50:24;16.40;99.90
13174;DHT22;6652;48.802;9.190;2023-07-31T00:52:51;16.40;99.90
13174;DHT22;6652;48.802;9.190;2023-07-31T06:57:18;26.10;96.60
13174;DHT22;6652;48.802;9.190;2023-07-31T06:59:46;26.80;95.40
13174;DHT22;6652;48.802;9.190;2023-07-31T07:02:12;26.90;94.10
13174;DHT22;6652;48.802;9.190;2023-07-31T07:04:39;26.90;93.80
13174;DHT22;6652;48.802;9.190;2023-07-31T07:07:06;27.10;93.60
13174;DHT22;6652;48.802;9.190;2023-07-31T07:09:33;27.10;92.70
13174;DHT22;6652;48.802;9.190;2023-07-31T07:12:01;27.10;92.60
13174;DHT22;6652;48.802;9.190;2023-07-31T07:14:29;27.20;92.90
13174;DHT22;6652;48.802;9.190;2023-07-31T07:16:55;27.40;92.20
13174;DHT22;6652;48.802;9.190;2023-07-31T07:19:22;28.20;91.90
13174;DHT22;6652;48.802;9.190;2023-07-31T07:21:49;29.00;90.10
13174;DHT22;6652;48.802;9.190;2023-07-31T07:24:16;29.00;88.20
13174;DHT22;6652;48.802;9.190;2023-07-31T07:26:43;28.90;87.60
13174;DHT22;6652;48.802;9.190;2023-07-31T07:29:09;28.80;86.40
13174;DHT22;6652;48.802;9.190;2023-07-31T07:31:37;28.40;85.90
13174;DHT22;6652;48.802;9.190;2023-07-31T07:34:05;28.50;86.30
13174;DHT22;6652;48.802;9.190;2023-07-31T07:36:31;28.30;84.40
13174;DHT22;6652;48.802;9.190;2023-07-31T07:38:59;27.70;85.20
13174;DHT22;6652;48.802;9.190;2023-07-31T07:41:25;27.00;87.10
13174;DHT22;6652;48.802;9.190;2023-07-31T07:43:52;26.80;88.80
13174;DHT22;6652;48.802;9.190;2023-07-31T07:46:19;26.80;90.00
13174;DHT22;6652;48.802;9.190;2023-07-31T07:48:47;26.70;90.10
13174;DHT22;6652;48.802;9.190;2023-07-31T07:51:14;27.20;90.10
13174;DHT22;6652;48.802;9.190;2023-07-31T07:53:41;27.70;89.50
13174;DHT22;6652;48.802;9.190;2023-07-31T07:56:08;28.40;87.00
13174;DHT22;6652;48.802;9.190;2023-07-31T07:58:34;28.90;83.80
13174;DHT22;6652;48.802;9.190;2023-07-31T08:01:01;29.10;82.10
13174;DHT22;6652;48.802;9.190;2023-07-31T08:03:28;29.60;81.30
13174;DHT22;6652;48.802;9.190;2023-07-31T08:05:59;29.50;81.80
13174;DHT22;6652;48.802;9.190;2023-07-31T08:08:26;30.50;80.30
13174;DHT22;6652;48.802;9.190;2023-07-31T08:10:53;30.60;77.10
13174;DHT22;6652;48.802;9.190;2023-07-31T08:13:20;31.10;75.50
13174;DHT22;6652;48.802;9.190;2023-07-31T08:15:46;31.30;74.30
13174;DHT22;6652;48.802;9.190;2023-07-31T08:18:13;31.90;71.80
13174;DHT22;6652;48.802;9.190;2023-07-31T08:20:44;31.70;68.80
13174;DHT22;6652;48.802;9.190;2023-07-31T08:23:12;31.90;69.60
13174;DHT22;6652;48.802;9.190;2023-07-31T08:25:39;32.20;68.70
13174;DHT22;6652;48.802;9.190;2023-07-31T08:28:06;31.90;67.50
13174;DHT22;6652;48.802;9.190;2023-07-31T08:30:33;31.90;66.10
13174;DHT22;6652;48.802;9.190;2023-07-31T08:33:00;32.00;65.90
13174;DHT22;6652;48.802;9.190;2023-07-31T08:35:28;32.20;67.10
13174;DHT22;6652;48.802;9.190;2023-07-31T08:37:55;33.00;64.80
13174;DHT22;6652;48.802;9.190;2023-07-31T08:40:23;33.90;62.70
13174;DHT22;6652;48.802;9.190;2023-07-31T08:42:52;34.20;60.80
13174;DHT22;6652;48.802;9.190;2023-07-31T08:45:20;33.50;58.70
13174;DHT22;6652;48.802;9.190;2023-07-31T08:47:48;32.20;60.40
13174;DHT22;6652;48.802;9.190;2023-07-31T08:50:16;31.20;61.90
13174;DHT22;6652;48.802;9.190;2023-07-31T08:52:45;30.40;64.50
13174;DHT22;6652;48.802;9.190;2023-07-31T08:55:12;30.20;66.10
13174;DHT22;6652;48.802;9.190;2023-07-31T08:57:42;30.10;66.30
13174;DHT22;6652;48.802;9.190;2023-07-31T09:00:10;30.50;66.70
13174;DHT22;6652;48.802;9.190;2023-07-31T09:02:39;30.00;66.70
13174;DHT22;6652;48.802;9.190;2023-07-31T09:05:08;29.80;67.60
13174;DHT22;6652;48.802;9.190;2023-07-31T09:07:35;30.10;68.40
13174;DHT22;6652;48.802;9.190;2023-07-31T09:10:03;31.00;67.30
13174;DHT22;6652;48.802;9.190;2023-07-31T09:12:30;31.60;66.00
13174;DHT22;6652;48.802;9.190;2023-07-31T09:14:58;32.60;63.40
13174;DHT22;6652;48.802;9.190;2023-07-31T09:17:32;33.30;61.20
13174;DHT22;6652;48.802;9.190;2023-07-31T09:20:13;33.40;58.20
13174;DHT22;6652;48.802;9.190;2023-07-31T09:22:40;33.60;59.40
13174;DHT22;6652;48.802;9.190;2023-07-31T09:25:14;32.80;58.70
13174;DHT22;6652;48.802;9.190;2023-07-31T09:27:46;32.70;59.90
13174;DHT22;6652;48.802;9.190;2023-07-31T09:30:15;31.80;61.40
13174;DHT22;6652;48.802;9.190;2023-07-31T09:32:43;31.30;62.40
13174;DHT22;6652;48.802;9.190;2023-07-31T09:35:20;30.30;64.60
13174;DHT22;6652;48.802;9.190;2023-07-31T09:37:52;30.40;64.40
13174;DHT22;6652;48.802;9.190;2023-07-31T09:40:26;29.80;65.20
13174;DHT22;6652;48.802;9.190;2023-07-31T09:42:54;28.90;66.70
13174;DHT22;6652;48.802;9.190;2023-07-31T09:45:23;28.20;69.30
13174;DHT22;6652;48.802;9.190;2023-07-31T09:47:51;27.80;70.80
13174;DHT22;6652;48.802;9.190;2023-07-31T09:50:19;27.60;71.70
13174;DHT22;6652;48.802;9.190;2023-07-31T09:52:46;27.50;72.40
13174;DHT22;6652;48.802;9.190;2023-07-31T09:55:13;29.00;72.10
13174;DHT22;6652;48.802;9.190;2023-07-31T09:57:41;30.50;68.90
13174;DHT22;6652;48.802;9.190;2023-07-31T10:00:10;31.60;67.40
13174;DHT22;6652;48.802;9.190;2023-07-31T10:02:39;32.50;63.10
13174;DHT22;6652;48.802;9.190;2023-07-31T10:05:07;31.70;62.30
13174;DHT22;6652;48.802;9.190;2023-07-31T10:07:37;30.80;64.40
13174;DHT22;6652;48.802;9.190;2023-07-31T10:10:07;30.80;65.70
13174;DHT22;6652;48.802;9.190;2023-07-31T10:12:35;31.20;62.10
13174;DHT22;6652;48.802;9.190;2023-07-31T10:15:03;31.50;62.70
13174;DHT22;6652;48.802;9.190;2023-07-31T10:17:31;31.50;61.50
13174;DHT22;6652;48.802;9.190;2023-07-31T10:19:59;31.50;62.90
13174;DHT22;6652;48.802;9.190;2023-07-31T10:22:29;31.50;62.60
13174;DHT22;6652;48.802;9.190;2023-07-31T10:24:58;30.70;61.80
13174;DHT22;6652;48.802;9.190;2023-07-31T10:27:25;30.20;64.20
13174;DHT22;6652;48.802;9.190;2023-07-31T10:29:54;30.60;66.40
13174;DHT22;6652;48.802;9.190;2023-07-31T10:32:22;30.70;64.30
13174;DHT22;6652;48.802;9.190;2023-07-31T10:34:50;30.90;63.10
13174;DHT22;6652;48.802;9.190;2023-07-31T10:37:23;30.20;63.40
13174;DHT22;6652;48.802;9.190;2023-07-31T10:39:56;29.60;65.80
13174;DHT22;6652;48.802;9.190;2023-07-31T10:42:30;30.30;67.50
13174;DHT22;6652;48.802;9.190;2023-07-31T10:44:58;30.60;64.00
13174;DHT22;6652;48.802;9.190;2023-07-31T10:47:26;30.20;65.40
13174;DHT22;6652;48.802;9.190;2023-07-31T10:49:53;30.30;64.80
13174;DHT22;6652;48.802;9.190;2023-07-31T10:52:21;30.40;65.10
13174;DHT22;6652;48.802;9.190;2023-07-31T10:54:49;30.10;64.80
13174;DHT22;6652;48.802;9.190;2023-07-31T10:57:20;29.70;65.30
13174;DHT22;6652;48.802;9.190;2023-07-31T10:59:47;29.30;65.80
13174;DHT22;6652;48.802;9.190;2023-07-31T11:02:24;29.30;67.20
13174;DHT22;6652;48.802;9.190;2023-07-31T11:05:06;29.20;67.80
13174;DHT22;6652;48.802;9.190;2023-07-31T11:07:48;29.20;69.10
13174;DHT22;6652;48.802;9.190;2023-07-31T11:10:17;29.10;69.30
13174;DHT22;6652;48.802;9.190;2023-07-31T11:12:45;28.90;68.00
13174;DHT22;6652;48.802;9.190;2023-07-31T11:15:12;28.70;68.70
13174;DHT22;6652;48.802;9.190;2023-07-31T11:17:39;28.50;68.10
13174;DHT22;6652;48.802;9.190;2023-07-31T11:20:06;28.70;69.20
13174;DHT22;6652;48.802;9.190;2023-07-31T11:22:34;28.80;69.00
13174;DHT22;6652;48.802;9.190;2023-07-31T11:25:03;28.40;70.40
13174;DHT22;6652;48.802;9.190;2023-07-31T11:27:30;28.40;70.20
13174;DHT22;6652;48.802;9.190;2023-07-31T11:30:00;28.20;69.70
13174;DHT22;6652;48.802;9.190;2023-07-31T11:32:28;28.00;71.50
13174;DHT22;6652;48.802;9.190;2023-07-31T11:34:55;27.90;71.70
13174;DHT22;6652;48.802;9.190;2023-07-31T11:37:22;27.80;70.30
13174;DHT22;6652;48.802;9.190;2023-07-31T11:39:59;27.60;71.30
13174;DHT22;6652;48.802;9.190;2023-07-31T11:42:27;27.50;73.10
13174;DHT22;6652;48.802;9.190;2023-07-31T11:44:54;27.30;72.60
13174;DHT22;6652;48.802;9.190;2023-07-31T11:47:21;27.00;74.40
13174;DHT22;6652;48.802;9.190;2023-07-31T11:49:49;26.90;74.40
13174;DHT22;6652;48.802;9.190;2023-07-31T11:52:16;26.60;74.90
13174;DHT22;6652;48.802;9.190;2023-07-31T11:54:45;26.50;75.40
13174;DHT22;6652;48.802;9.190;2023-07-31T11:57:12;26.60;76.40
13174;DHT22;6652;48.802;9.190;2023-07-31T11:59:41;26.70;75.20
13174;DHT22;6652;48.802;9.190;2023-07-31T12:02:09;26.70;75.60
13174;DHT22;6652;48.802;9.190;2023-07-31T12:04:36;26.80;75.50
13174;DHT22;6652;48.802;9.190;2023-07-31T12:07:04;26.90;76.10
13174;DHT22;6652;48.802;9.190;2023-07-31T12:09:31;27.20;76.20
13174;DHT22;6652;48.802;9.190;2023-07-31T12:11:58;27.40;75.40
13174;DHT22;6652;48.802;9.190;2023-07-31T12:14:26;27.50;74.80
13174;DHT22;6652;48.802;9.190;2023-07-31T12:16:56;27.40;75.10
13174;DHT22;6652;48.802;9.190;2023-07-31T12:19:23;27.30;76.20
13174;DHT22;6652;48.802;9.190;2023-07-31T12:21:53;27.20;75.50
13174;DHT22;6652;48.802;9.190;2023-07-31T12:24:20;26.90;74.00
13174;DHT22;6652;48.802;9.190;2023-07-31T12:26:48;26.90;76.00
13174;DHT22;6652;48.802;9.190;2023-07-31T12:29:15;26.80;75.70
13174;DHT22;6652;48.802;9.190;2023-07-31T12:31:42;26.60;76.30
13174;DHT22;6652;48.802;9.190;2023-07-31T12:34:16;26.40;76.90
13174;DHT22;6652;48.802;9.190;2023-07-31T12:36:44;26.40;78.40
13174;DHT22;6652;48.802;9.190;2023-07-31T12:39:12;26.40;78.10
13174;DHT22;6652;48.802;9.190;2023-07-31T12:41:39;26.40;77.70
13174;DHT22;6652;48.802;9.190;2023-07-31T12:44:06;26.20;77.10
13174;DHT22;6652;48.802;9.190;2023-07-31T12:46:33;26.20;78.20
13174;DHT22;6652;48.802;9.190;2023-07-31T12:49:00;26.00;77.90
13174;DHT22;6652;48.802;9.190;2023-07-31T12:51:28;25.80;77.40
13174;DHT22;6652;48.802;9.190;2023-07-31T12:53:55;25.60;78.60
13174;DHT22;6652;48.802;9.190;2023-07-31T16:18:13;26.20;81.20
13174;DHT22;6652;48.802;9.190;2023-07-31T16:20:40;26.10;80.70
13174;DHT22;6652;48.802;9.190;2023-07-31T16:23:08;26.10;82.00
13174;DHT22;6652;48.802;9.190;2023-07-31T16:25:35;26.00;80.80
13174;DHT22;6652;48.802;9.190;2023-07-31T16:28:02;25.80;81.10
13174;DHT22;6652;48.802;9.190;2023-07-31T16:30:30;25.60;81.80
13174;DHT22;6652;48.802;9.190;2023-07-31T16:32:57;26.00;82.50
13174;DHT22;6652;48.802;9.190;2023-07-31T16:35:26;25.40;82.40
13174;DHT22;6652;48.802;9.190;2023-07-31T16:37:52;25.40;82.80
13174;DHT22;6652;48.802;9.190;2023-07-31T16:40:19;25.30;83.30
13174;DHT22;6652;48.802;9.190;2023-07-31T16:42:46;25.20;83.90
13174;DHT22;6652;48.802;9.190;2023-07-31T16:45:13;25.60;85.70
13174;DHT22;6652;48.802;9.190;2023-07-31T16:47:40;25.90;85.10
13174;DHT22;6652;48.802;9.190;2023-07-31T16:50:08;25.20;85.00
13174;DHT22;6652;48.802;9.190;2023-07-31T16:52:36;25.10;85.30
13174;DHT22;6652;48.802;9.190;2023-07-31T16:55:03;25.10;85.70
13174;DHT22;6652;48.802;9.190;2023-07-31T16:57:30;25.00;86.40
13174;DHT22;6652;48.802;9.190;2023-07-31T16:59:57;25.00;86.10
13174;DHT22;6652;48.802;9.190;2023-07-31T17:02:24;25.00;86.50
13174;DHT22;6652;48.802;9.190;2023-07-31T17:04:51;24.90;86.70
13174;DHT22;6652;48.802;9.190;2023-07-31T17:07:17;24.80;86.70
13174;DHT22;6652;48.802;9.190;2023-07-31T17:09:48;24.80;87.00
13174;DHT22;6652;48.802;9.190;2023-07-31T17:12:14;24.70;87.10
13174;DHT22;6652;48.802;9.190;2023-07-31T17:14:41;24.60;87.00
13174;DHT22;6652;48.802;9.190;2023-07-31T17:17:08;24.50;87.40
13174;DHT22;6652;48.802;9.190;2023-07-31T17:19:35;24.40;87.50
13174;DHT22;6652;48.802;9.190;2023-07-31T17:22:02;24.70;88.60
13174;DHT22;6652;48.802;9.190;2023-07-31T17:24:28;24.20;88.80
13174;DHT22;6652;48.802;9.190;2023-07-31T17:26:57;24.10;89.30
13174;DHT22;6652;48.802;9.190;2023-07-31T17:29:27;24.10;90.20
13174;DHT22;6652;48.802;9.190;2023-07-31T17:31:54;24.00;89.90
13174;DHT22;6652;48.802;9.190;2023-07-31T17:34:21;24.10;90.00
13174;DHT22;6652;48.802;9.190;2023-07-31T17:36:48;24.50;90.30
13174;DHT22;6652;48.802;9.190;2023-07-31T17:39:14;23.90;90.20
13174;DHT22;6652;48.802;9.190;2023-07-31T17:41:48;23.90;90.20
13174;DHT22;6652;48.802;9.190;2023-07-31T17:44:16;23.90;90.20
13174;DHT22;6652;48.802;9.190;2023-07-31T17:46:43;23.80;90.30
13174;DHT22;6652;48.802;9.190;2023-07-31T17:49:10;23.80;90.50
13174;DHT22;6652;48.802;9.190;2023-07-31T17:51:37;23.80;90.70
13174;DHT22;6652;48.802;9.190;2023-07-31T17:54:04;23.60;90.80
13174;DHT22;6652;48.802;9.190;2023-07-31T17:56:31;23.70;90.90
13174;DHT22;6652;48.802;9.190;2023-07-31T17:59:02;23.80;91.00
13174;DHT22;6652;48.802;9.190;2023-07-31T18:01:31;23.60;91.10
13174;DHT22;6652;48.802;9.190;2023-07-31T18:03:58;23.70;91.20
13174;DHT22;6652;48.802;9.190;2023-07-31T18:06:25;24.10;91.70
13174;DHT22;6652;48.802;9.190;2023-07-31T18:08:51;23.60;91.50
13174;DHT22;6652;48.802;9.190;2023-07-31T18:11:18;23.60;91.50
13174;DHT22;6652;48.802;9.190;2023-07-31T18:13:48;23.60;91.60
13174;DHT22;6652;48.802;9.190;2023-07-31T18:16:15;23.60;91.70
13174;DHT22;6652;48.802;9.190;2023-07-31T18:18:43;23.60;92.00
13174;DHT22;6652;48.802;9.190;2023-07-31T18:21:10;23.30;92.50
13174;DHT22;6652;48.802;9.190;2023-07-31T18:23:37;23.60;92.40
13174;DHT22;6652;48.802;9.190;2023-07-31T18:26:04;23.50;92.60
13174;DHT22;6652;48.802;9.190;2023-07-31T18:28:31;23.40;93.00
13174;DHT22;6652;48.802;9.190;2023-07-31T18:31:00;23.40;93.20
13174;DHT22;6652;48.802;9.190;2023-07-31T18:33:27;23.30;93.40
13174;DHT22;6652;48.802;9.190;2023-07-31T18:35:56;23.30;93.60
13174;DHT22;6652;48.802;9.190;2023-07-31T18:38:23;23.30;93.80
13174;DHT22;6652;48.802;9.190;2023-07-31T19:22:09;21.90;99.90
13174;DHT22;6652;48.802;9.190;2023-07-31T19:24:36;21.80;99.90
13174;DHT22;6652;48.802;9.190;2023-07-31T19:27:03;21.70;99.90
13174;DHT22;6652;48.802;9.190;2023-07-31T19:29:30;21.60;99.90
13174;DHT22;6652;48.802;9.190;2023-07-31T19:31:58;21.80;99.90
13174;DHT22;6652;48.802;9.190;2023-07-31T19:34:25;21.40;99.90
13174;DHT22;6652;48.802;9.190;2023-07-31T19:37:02;21.30;99.90
13174;DHT22;6652;48.802;9.190;2023-07-31T19:39:30;21.20;99.90
13174;DHT22;6652;48.802;9.190;2023-07-31T19:41:57;21.10;99.90
13174;DHT22;6652;48.802;9.190;2023-07-31T19:44:23;21.10;99.90
13174;DHT22;6652;48.802;9.190;2023-07-31T19:46:50;21.00;99.90
13174;DHT22;6652;48.802;9.190;2023-07-31T19:49:17;20.90;99.90
13174;DHT22;6652;48.802;9.190;2023-07-31T19:51:44;20.80;99.90
13174;DHT22;6652;48.802;9.190;2023-07-31T19:54:30;20.70;99.90
13174;DHT22;6652;48.802;9.190;2023-07-31T20:00:19;20.50;99.90
13174;DHT22;6652;48.802;9.190;2023-07-31T20:02:46;20.50;99.90
13174;DHT22;6652;48.802;9.190;2023-07-31T20:05:13;20.40;99.90
13174;DHT22;6652;48.802;9.190;2023-07-31T20:07:40;20.30;99.90
13174;DHT22;6652;48.802;9.190;2023-07-31T20:10:10;20.30;99.90
13174;DHT22;6652;48.802;9.190;2023-07-31T20:12:37;20.30;99.90
13174;DHT22;6652;48.802;9.190;2023-07-31T20:15:21;20.40;99.90
13174;DHT22;6652;48.802;9.190;2023-07-31T20:17:48;20.30;99.90
13174;DHT22;6652;48.802;9.190;2023-07-31T20:20:21;20.20;99.90
13174;DHT22;6652;48.802;9.190;2023-07-31T20:22:51;20.20;99.90
13174;DHT22;6652;48.802;9.190;2023-07-31T20:25:26;20.10;99.90
13174;DHT22;6652;48.802;9.190;2023-07-31T20:27:53;20.20;99.90
13174;DHT22;6652;48.802;9.190;2023-07-31T20:30:23;20.00;99.90
13174;DHT22;6652;48.802;9.190;2023-07-31T20:32:50;20.00;99.90
13174;DHT22;6652;48.802;9.190;2023-07-31T20:35:24;20.00;99.90
13174;DHT22;6652;48.802;9.190;2023-07-31T20:37:51;20.00;99.90
13174;DHT22;6652;48.802;9.190;2023-07-31T20:40:18;19.90;99.90
13174;DHT22;6652;48.802;9.190;2023-07-31T20:42:56;19.90;99.90
13174;DHT22;6652;48.802;9.190;2023-07-31T20:45:26;20.00;99.90
13174;DHT22;6652;48.802;9.190;2023-07-31T20:47:54;19.90;99.90
13174;DHT22;6652;48.802;9.190;2023-07-31T20:50:25;19.90;99.90
13174;DHT22;6652;48.802;9.190;2023-07-31T20:52:53;19.80;99.90
13174;DHT22;6652;48.802;9.190;2023-07-31T20:55:20;19.80;99.90
13174;DHT22;6652;48.802;9.190;2023-07-31T20:57:47;19.80;99.90
13174;DHT22;6652;48.802;9.190;2023-07-31T21:00:16;19.80;99.90
13174;DHT22;6652;48.802;9.190;2023-07-31T21:02:44;19.70;99.90
13174;DHT22;6652;48.802;9.190;2023-07-31T21:05:11;19.70;99.90
13174;DHT22;6652;48.802;9.190;2023-07-31T21:07:38;19.70;99.90
13174;DHT22;6652;48.802;9.190;2023-07-31T21:10:08;19.70;99.90
13174;DHT22;6652;48.802;9.190;2023-07-31T21:12:36;19.60;99.90
13174;DHT22;6652;48.802;9.190;2023-07-31T21:15:06;19.60;99.90
13174;DHT22;6652;48.802;9.190;2023-07-31T21:17:35;19.60;99.90
13174;DHT22;6652;48.802;9.190;2023-07-31T21:20:03;19.60;99.90
13174;DHT22;6652;48.802;9.190;2023-07-31T21:22:30;19.60;99.90
13174;DHT22;6652;48.802;9.190;2023-07-31T21:24:57;19.60;99.90
13174;DHT22;6652;48.802;9.190;2023-07-31T21:27:24;19.50;99.90
13174;DHT22;6652;48.802;9.190;2023-07-31T21:29:51;19.50;99.90
13174;DHT22;6652;48.802;9.190;2023-07-31T21:32:18;19.40;99.90
13174;DHT22;6652;48.802;9.190;2023-07-31T21:34:47;19.40;99.90
13174;DHT22;6652;48.802;9.190;2023-07-31T21:37:14;19.40;99.90
13174;DHT22;6652;48.802;9.190;2023-07-31T21:39:41;19.30;99.90
13174;DHT22;6652;48.802;9.190;2023-07-31T21:42:08;19.30;99.90
13174;DHT22;6652;48.802;9.190;2023-07-31T21:44:35;19.20;99.90
13174;DHT22;6652;48.802;9.190;2023-07-31T21:47:02;19.50;99.90
13174;DHT22;6652;48.802;9.190;2023-07-31T21:49:29;19.20;99.90
13174;DHT22;6652;48.802;9.190;2023-07-31T21:52:00;19.10;99.90
13174;DHT22;6652;48.802;9.190;2023-07-31T21:54:27;19.10;99.90
13174;DHT22;6652;48.802;9.190;2023-07-31T21:56:54;19.10;99.90
13174;DHT22;6652;48.802;9.190;2023-07-31T21:59:21;19.20;99.90
13174;DHT22;6652;48.802;9.190;2023-07-31T22:01:48;19.20;99.90
13174;DHT22;6652;48.802;9.190;2023-07-31T22:04:15;19.20;99.90
13174;DHT22;6652;48.802;9.190;2023-07-31T22:06:42;19.20;99.90
13174;DHT22;6652;48.802;9.190;2023-07-31T22:09:20;19.60;99.90
13174;DHT22;6652;48.802;9.190;2023-07-31T22:11:47;19.20;99.90
13174;DHT22;6652;48.802;9.190;2023-07-31T22:14:14;19.00;99.90
13174;DHT22;6652;48.802;9.190;2023-07-31T22:16:41;19.30;99.90
13174;DHT22;6652;48.802;9.190;2023-07-31T22:19:09;19.10;99.90
13174;DHT22;6652;48.802;9.190;2023-07-31T22:21:36;19.20;99.90
13174;DHT22;6652;48.802;9.190;2023-07-31T22:24:03;19.20;99.90
13174;DHT22;6652;48.802;9.190;2023-07-31T22:26:32;19.20;99.90
13174;DHT22;6652;48.802;9.190;2023-07-31T22:28:59;19.30;99.90
13174;DHT22;6652;48.802;9.190;2023-07-31T22:31:26;19.30;99.90
13174;DHT22;6652;48.802;9.190;2023-07-31T22:33:53;19.20;99.90
13174;DHT22;6652;48.802;9.190;2023-07-31T22:36:20;19.20;99.90
13174;DHT22;6652;48.802;9.190;2023-07-31T22:38:47;19.30;99.90
